createdAt,value
2023-03-07T00:02:16.190Z,94.10
2023-03-07T00:04:45.566Z,93.95
2023-03-07T00:07:13.812Z,93.11
2023-03-07T00:09:42.462Z,91.98
2023-03-07T00:12:11.146Z,91.85
2023-03-07T00:14:39.326Z,91.06
2023-03-07T00:17:07.388Z,91.91
2023-03-07T00:19:35.664Z,91.78
2023-03-07T00:22:03.835Z,91.54
2023-03-07T00:24:32.215Z,91.87
2023-03-07T00:27:00.284Z,91.49
2023-03-07T00:29:28.766Z,92.66
2023-03-07T00:31:56.945Z,92.60
2023-03-07T00:34:25.122Z,93.21
2023-03-07T00:36:53.285Z,93.26
2023-03-07T00:39:21.461Z,93.09
2023-03-07T00:41:49.644Z,92.20
2023-03-07T00:44:17.710Z,91.98
2023-03-07T00:46:45.886Z,92.69
2023-03-07T00:49:13.956Z,92.10
2023-03-07T00:51:42.237Z,91.91
2023-03-07T00:54:10.307Z,91.88
2023-03-07T00:56:38.584Z,92.22
2023-03-07T00:59:07.373Z,92.23
2023-03-07T01:01:35.652Z,92.43
2023-03-07T01:04:04.083Z,92.89
2023-03-07T01:06:33.230Z,94.09
2023-03-07T01:09:08.244Z,94.88
2023-03-07T01:11:37.255Z,94.51
2023-03-07T01:14:06.257Z,94.45
2023-03-07T01:16:37.694Z,94.17
2023-03-07T01:19:07.514Z,94.50
2023-03-07T01:21:37.702Z,94.03
2023-03-07T01:24:06.517Z,93.81
2023-03-07T01:26:35.059Z,93.59
2023-03-07T01:29:05.229Z,93.80
2023-03-07T01:31:36.162Z,93.94
2023-03-07T01:34:05.345Z,94.67
2023-03-07T01:36:36.874Z,94.29
2023-03-07T01:39:08.369Z,94.10
2023-03-07T01:41:38.596Z,94.04
2023-03-07T01:44:19.409Z,95.14
2023-03-07T01:47:00.843Z,94.78
2023-03-07T01:49:39.274Z,94.13
2023-03-07T01:52:07.345Z,94.45
2023-03-07T01:54:43.096Z,94.81
2023-03-07T01:57:11.090Z,94.99
2023-03-07T01:59:42.708Z,95.21
2023-03-07T02:02:14.611Z,96.21
2023-03-07T02:04:45.097Z,95.27
2023-03-07T02:07:14.097Z,96.21
2023-03-07T02:09:44.062Z,97.83
2023-03-07T02:12:13.715Z,96.85
2023-03-07T02:14:45.951Z,96.21
2023-03-07T02:17:14.285Z,96.04
2023-03-07T02:19:55.032Z,96.64
2023-03-07T02:22:23.217Z,96.41
2023-03-07T02:24:53.445Z,96.94
2023-03-07T02:27:23.454Z,97.16
2023-03-07T02:29:52.339Z,97.35
2023-03-07T02:32:20.594Z,97.41
2023-03-07T02:34:48.794Z,98.00
2023-03-07T02:37:26.380Z,99.37
2023-03-07T02:39:55.386Z,100.00
2023-03-07T02:42:26.116Z,100.00
2023-03-07T02:45:00.944Z,100.00
2023-03-07T02:47:30.959Z,100.00
2023-03-07T02:49:59.763Z,100.00
2023-03-07T02:52:29.983Z,100.00
2023-03-07T02:54:58.872Z,100.00
2023-03-07T02:57:30.831Z,100.00
2023-03-07T03:00:00.245Z,100.00
2023-03-07T03:02:28.814Z,100.00
2023-03-07T03:04:57.126Z,100.00
2023-03-07T03:07:25.162Z,100.00
2023-03-07T03:09:53.240Z,100.00
2023-03-07T03:12:21.928Z,100.00
2023-03-07T03:14:50.511Z,100.00
2023-03-07T03:17:18.908Z,100.00
2023-03-07T03:19:47.167Z,100.00
2023-03-07T03:22:15.348Z,100.00
2023-03-07T03:24:46.289Z,100.00
2023-03-07T03:27:16.817Z,100.00
2023-03-07T03:29:45.942Z,100.00
2023-03-07T03:32:14.771Z,100.00
2023-03-07T03:34:44.405Z,100.00
2023-03-07T03:37:13.192Z,100.00
2023-03-07T03:39:41.571Z,100.00
2023-03-07T03:42:10.363Z,100.00
2023-03-07T03:44:38.739Z,100.00
2023-03-07T03:47:06.709Z,100.00
2023-03-07T03:49:34.984Z,100.00
2023-03-07T03:52:05.070Z,100.00
2023-03-07T03:54:33.789Z,100.00
2023-03-07T03:57:02.070Z,100.00
2023-03-07T03:59:31.471Z,100.00
2023-03-07T04:01:59.939Z,100.00
2023-03-07T04:04:28.062Z,100.00
2023-03-07T04:06:56.197Z,100.00
2023-03-07T04:09:24.378Z,100.00
2023-03-07T04:11:52.770Z,100.00
2023-03-07T04:14:21.132Z,100.00
2023-03-07T04:16:49.656Z,100.00
2023-03-07T04:19:18.303Z,100.00
2023-03-07T04:21:46.577Z,100.00
2023-03-07T04:24:17.203Z,100.00
2023-03-07T04:26:45.477Z,100.00
2023-03-07T04:29:13.556Z,100.00
2023-03-07T04:31:44.468Z,100.00
2023-03-07T04:34:13.074Z,100.00
2023-03-07T04:36:41.350Z,100.00
2023-03-07T04:39:09.626Z,100.00
2023-03-07T04:41:38.007Z,100.00
2023-03-07T04:44:10.993Z,100.00
2023-03-07T04:46:39.885Z,100.00
2023-03-07T04:49:08.064Z,100.00
2023-03-07T04:51:36.543Z,100.00
2023-03-07T04:54:04.826Z,100.00
2023-03-07T04:56:33.100Z,100.00
2023-03-07T04:59:02.093Z,100.00
2023-03-07T05:01:30.326Z,100.00
2023-03-07T05:03:59.488Z,100.00
2023-03-07T05:06:27.953Z,100.00
2023-03-07T05:08:56.117Z,100.00
2023-03-07T05:11:24.256Z,100.00
2023-03-07T05:13:53.397Z,100.00
2023-03-07T05:16:23.509Z,100.00
2023-03-07T05:18:51.553Z,100.00
2023-03-07T05:21:20.368Z,100.00
2023-03-07T05:23:48.315Z,100.00
2023-03-07T05:26:16.663Z,100.00
2023-03-07T05:28:44.860Z,100.00
2023-03-07T05:31:13.148Z,100.00
2023-03-07T05:33:42.832Z,100.00
2023-03-07T05:36:11.567Z,100.00
2023-03-07T05:38:40.335Z,100.00
2023-03-07T05:41:08.730Z,100.00
2023-03-07T05:43:37.521Z,100.00
2023-03-07T05:46:05.617Z,100.00
2023-03-07T05:48:34.076Z,100.00
2023-03-07T05:51:02.761Z,100.00
2023-03-07T05:53:31.610Z,100.00
2023-03-07T05:56:00.443Z,100.00
2023-03-07T05:58:29.747Z,100.00
2023-03-07T06:00:58.426Z,100.00
2023-03-07T06:03:26.924Z,100.00
2023-03-07T06:05:55.388Z,100.00
2023-03-07T06:08:23.564Z,100.00
2023-03-07T06:10:53.181Z,100.00
2023-03-07T06:13:22.989Z,100.00
2023-03-07T06:15:52.172Z,100.00
2023-03-07T06:18:21.280Z,99.37
2023-03-07T06:20:59.181Z,97.14
2023-03-07T06:23:28.993Z,94.42
2023-03-07T06:25:57.782Z,91.52
2023-03-07T06:28:26.908Z,91.20
2023-03-07T06:30:55.566Z,90.57
2023-03-07T06:33:24.866Z,90.07
2023-03-07T06:35:53.313Z,89.58
2023-03-07T06:38:21.521Z,88.46
2023-03-07T06:40:56.738Z,88.09
2023-03-07T06:43:25.143Z,86.60
2023-03-07T06:45:53.702Z,84.79
2023-03-07T06:48:22.442Z,85.22
2023-03-07T06:50:50.487Z,84.75
2023-03-07T06:53:18.767Z,78.67
2023-03-07T06:55:50.872Z,69.22
2023-03-07T06:58:18.996Z,67.17
2023-03-07T07:00:47.079Z,62.14
2023-03-07T07:03:15.504Z,63.94
2023-03-07T07:05:43.737Z,60.96
2023-03-07T07:08:12.516Z,55.81
2023-03-07T07:10:41.222Z,54.77
2023-03-07T07:13:09.536Z,55.31
2023-03-07T07:15:37.696Z,53.34
2023-03-07T07:18:06.447Z,49.86
2023-03-07T07:20:35.317Z,51.58
2023-03-07T07:23:03.949Z,49.80
2023-03-07T07:25:31.996Z,47.26
2023-03-07T07:28:00.253Z,45.30
2023-03-07T07:30:28.624Z,43.20
2023-03-07T07:32:57.273Z,40.44
2023-03-07T07:35:25.447Z,41.72
2023-03-07T07:37:54.605Z,39.44
2023-03-07T07:40:22.793Z,38.34
2023-03-07T07:42:55.046Z,40.48
2023-03-07T07:45:37.774Z,39.38
2023-03-07T07:48:06.775Z,39.52
2023-03-07T07:50:36.137Z,38.27
2023-03-07T07:53:05.385Z,37.85
2023-03-07T07:55:33.564Z,38.31
2023-03-07T07:58:02.493Z,38.25
2023-03-07T08:00:31.377Z,36.30
2023-03-07T08:03:00.418Z,35.86
2023-03-07T08:05:28.592Z,36.30
2023-03-07T08:07:57.062Z,35.96
2023-03-07T08:10:25.248Z,35.99
2023-03-07T08:12:53.762Z,36.01
2023-03-07T08:15:22.007Z,35.35
2023-03-07T08:17:51.561Z,34.88
2023-03-07T08:20:22.570Z,36.00
2023-03-07T08:22:51.765Z,35.26
2023-03-07T08:25:22.591Z,35.04
2023-03-07T08:27:55.039Z,34.68
2023-03-07T08:30:23.649Z,35.49
2023-03-07T08:32:53.255Z,34.51
2023-03-07T08:35:21.717Z,34.62
2023-03-07T08:37:53.838Z,35.26
2023-03-07T08:40:22.844Z,34.45
2023-03-07T08:42:50.892Z,33.83
2023-03-07T08:45:18.976Z,33.84
2023-03-07T08:47:47.074Z,33.47
2023-03-07T08:50:15.281Z,33.17
2023-03-07T08:52:44.077Z,32.88
2023-03-07T08:55:12.249Z,32.58
2023-03-07T08:57:40.385Z,32.71
2023-03-07T09:00:11.068Z,32.50
2023-03-07T09:02:39.411Z,33.26
2023-03-07T09:05:07.816Z,32.58
2023-03-07T09:07:35.945Z,32.02
2023-03-07T09:10:06.033Z,31.72
2023-03-07T09:12:34.873Z,32.01
2023-03-07T09:15:03.054Z,32.45
2023-03-07T09:17:31.166Z,32.61
2023-03-07T09:19:59.336Z,32.60
2023-03-07T09:22:27.714Z,32.91
2023-03-07T09:24:55.722Z,33.14
2023-03-07T09:27:23.760Z,33.66
2023-03-07T09:29:51.793Z,33.91
2023-03-07T09:32:20.244Z,33.31
2023-03-07T09:34:48.233Z,33.30
2023-03-07T09:37:16.319Z,33.63
2023-03-07T09:39:44.596Z,33.21
2023-03-07T09:42:12.751Z,32.95
2023-03-07T09:44:46.928Z,33.57
2023-03-07T09:47:42.268Z,34.37
2023-03-07T09:50:13.823Z,34.12
2023-03-07T09:52:43.070Z,34.46
2023-03-07T09:55:17.596Z,34.67
2023-03-07T09:57:50.314Z,34.53
2023-03-07T10:00:27.449Z,34.52
2023-03-07T10:03:12.699Z,35.53
2023-03-07T10:05:43.189Z,34.72
2023-03-07T10:08:20.097Z,34.35
2023-03-07T10:11:03.622Z,34.62
2023-03-07T10:13:50.381Z,34.93
2023-03-07T10:16:41.657Z,34.98
2023-03-07T10:19:13.958Z,34.95
2023-03-07T10:21:57.278Z,34.81
2023-03-07T10:24:31.451Z,34.94
2023-03-07T10:26:59.560Z,34.80
2023-03-07T10:29:32.388Z,34.84
2023-03-07T10:32:14.543Z,34.34
2023-03-07T10:34:42.801Z,34.00
2023-03-07T10:37:19.356Z,34.01
2023-03-07T10:39:55.186Z,34.42
2023-03-07T10:42:32.281Z,34.61
2023-03-07T10:45:01.425Z,35.03
2023-03-07T10:47:29.835Z,34.78
2023-03-07T10:50:11.534Z,34.29
2023-03-07T10:52:41.383Z,34.01
2023-03-07T10:55:28.252Z,34.35
2023-03-07T10:58:12.244Z,33.93
2023-03-07T11:00:40.487Z,34.30
2023-03-07T11:03:25.822Z,34.04
2023-03-07T11:05:54.223Z,34.52
2023-03-07T11:08:22.342Z,34.19
2023-03-07T11:10:50.400Z,33.42
2023-03-07T11:13:19.720Z,33.81
2023-03-07T11:15:47.778Z,33.61
2023-03-07T11:18:28.228Z,33.36
2023-03-07T11:20:57.174Z,33.89
2023-03-07T11:23:26.718Z,34.14
2023-03-07T11:25:55.756Z,34.35
2023-03-07T11:28:23.792Z,34.30
2023-03-07T11:31:12.172Z,34.27
2023-03-07T11:33:58.687Z,34.35
2023-03-07T11:36:32.149Z,34.12
2023-03-07T11:39:09.378Z,34.04
2023-03-07T11:41:38.509Z,34.21
2023-03-07T11:44:06.446Z,33.78
2023-03-07T11:46:34.363Z,33.83
2023-03-07T11:49:11.581Z,34.46
2023-03-07T11:51:53.734Z,34.85
2023-03-07T11:54:27.909Z,35.09
2023-03-07T11:57:00.600Z,35.16
2023-03-07T11:59:34.599Z,35.17
2023-03-07T12:02:06.339Z,34.71
2023-03-07T12:04:37.156Z,35.06
2023-03-07T12:07:08.371Z,35.22
2023-03-07T12:09:36.267Z,35.37
2023-03-07T12:12:10.505Z,34.69
2023-03-07T12:14:55.148Z,35.21
2023-03-07T12:17:23.353Z,34.84
2023-03-07T12:20:02.473Z,34.85
2023-03-07T12:22:36.701Z,34.43
2023-03-07T12:25:04.720Z,34.65
2023-03-07T12:27:41.932Z,34.74
2023-03-07T12:30:13.080Z,35.08
2023-03-07T12:32:41.476Z,35.17
2023-03-07T12:35:28.545Z,34.88
2023-03-07T12:38:08.574Z,34.96
2023-03-07T12:40:45.507Z,34.49
2023-03-07T12:43:23.732Z,34.31
2023-03-07T12:46:12.616Z,34.11
2023-03-07T12:48:49.140Z,34.15
2023-03-07T12:51:26.340Z,33.96
2023-03-07T12:54:08.885Z,34.10
2023-03-07T12:56:40.001Z,34.25
2023-03-07T12:59:12.945Z,34.14
2023-03-07T13:01:46.573Z,34.20
2023-03-07T13:04:17.656Z,34.49
2023-03-07T13:06:46.631Z,34.60
2023-03-07T13:09:23.569Z,34.73
2023-03-07T13:12:08.940Z,35.20
2023-03-07T13:14:41.738Z,35.46
2023-03-07T13:17:10.944Z,35.69
2023-03-07T13:19:39.494Z,36.05
2023-03-07T13:22:10.526Z,36.16
2023-03-07T13:24:40.178Z,36.10
2023-03-07T13:27:14.019Z,36.03
2023-03-07T13:30:00.802Z,35.63
2023-03-07T13:32:47.771Z,35.47
2023-03-07T13:35:31.265Z,35.86
2023-03-07T13:38:15.296Z,36.07
2023-03-07T13:40:43.560Z,35.91
2023-03-07T13:43:31.814Z,35.81
2023-03-07T13:46:00.985Z,36.14
2023-03-07T13:48:29.010Z,36.12
2023-03-07T13:50:57.106Z,36.21
2023-03-07T13:53:30.912Z,36.36
2023-03-07T13:55:58.954Z,36.40
2023-03-07T13:58:44.875Z,36.42
2023-03-07T14:01:23.676Z,36.47
2023-03-07T14:03:54.587Z,36.57
2023-03-07T14:06:28.620Z,37.15
2023-03-07T14:09:01.502Z,37.00
2023-03-07T14:11:49.935Z,37.42
2023-03-07T14:14:25.162Z,37.91
2023-03-07T14:16:59.270Z,38.03
2023-03-07T14:19:27.974Z,38.29
2023-03-07T14:21:58.959Z,38.70
2023-03-07T14:24:46.481Z,38.90
2023-03-07T14:27:15.592Z,39.18
2023-03-07T14:29:53.681Z,39.16
2023-03-07T14:32:27.592Z,39.12
2023-03-07T14:34:57.835Z,39.05
2023-03-07T14:37:32.943Z,39.02
2023-03-07T14:40:22.537Z,39.15
2023-03-07T14:42:54.359Z,39.30
2023-03-07T14:45:46.000Z,39.22
2023-03-07T14:48:13.927Z,39.40
2023-03-07T14:50:46.864Z,39.48
2023-03-07T14:53:26.757Z,39.80
2023-03-07T14:55:55.959Z,39.94
2023-03-07T14:58:25.684Z,40.03
2023-03-07T15:01:04.320Z,40.03
2023-03-07T15:03:32.803Z,40.46
2023-03-07T15:06:02.941Z,40.56
2023-03-07T15:08:33.555Z,40.58
2023-03-07T15:11:01.529Z,40.79
2023-03-07T15:13:33.090Z,41.01
2023-03-07T15:16:03.854Z,41.23
2023-03-07T15:18:32.004Z,41.58
2023-03-07T15:21:01.342Z,41.84
2023-03-07T15:23:30.073Z,41.96
2023-03-07T15:26:05.615Z,42.04
2023-03-07T15:28:38.222Z,42.38
2023-03-07T15:31:08.292Z,42.55
2023-03-07T15:33:36.467Z,42.90
2023-03-07T15:36:13.785Z,43.03
2023-03-07T15:38:49.767Z,43.40
2023-03-07T15:41:36.079Z,43.86
2023-03-07T15:44:22.156Z,43.92
2023-03-07T15:46:54.864Z,44.09
2023-03-07T15:49:26.119Z,44.18
2023-03-07T15:51:55.868Z,44.50
2023-03-07T15:54:30.591Z,44.98
2023-03-07T15:57:00.878Z,44.96
2023-03-07T15:59:30.938Z,45.29
2023-03-07T16:02:18.778Z,45.50
2023-03-07T16:04:46.744Z,46.05
2023-03-07T16:07:20.508Z,46.31
2023-03-07T16:09:48.682Z,46.81
2023-03-07T16:12:18.678Z,46.58
2023-03-07T16:14:50.961Z,46.58
2023-03-07T16:17:36.247Z,46.98
2023-03-07T16:20:04.927Z,47.04
2023-03-07T16:22:33.078Z,47.09
2023-03-07T16:25:01.179Z,47.33
2023-03-07T16:27:29.165Z,47.42
2023-03-07T16:29:59.442Z,47.29
2023-03-07T16:32:28.891Z,47.52
2023-03-07T16:34:57.049Z,47.51
2023-03-07T16:37:25.909Z,47.85
2023-03-07T16:39:54.058Z,47.91
2023-03-07T16:42:23.171Z,47.98
2023-03-07T16:44:51.883Z,48.08
2023-03-07T16:47:19.928Z,48.26
2023-03-07T16:49:49.090Z,48.54
2023-03-07T16:52:17.026Z,48.84
2023-03-07T16:54:45.001Z,48.92
2023-03-07T16:57:15.168Z,49.07
2023-03-07T16:59:44.976Z,49.14
2023-03-07T17:02:15.232Z,49.48
2023-03-07T17:04:44.419Z,49.67
2023-03-07T17:07:18.475Z,50.02
2023-03-07T17:09:46.645Z,50.27
2023-03-07T17:12:14.610Z,50.58
2023-03-07T17:14:43.174Z,50.65
2023-03-07T17:17:29.336Z,51.08
2023-03-07T17:19:57.455Z,51.53
2023-03-07T17:22:25.515Z,51.73
2023-03-07T17:24:53.508Z,51.58
2023-03-07T17:27:22.034Z,52.25
2023-03-07T17:29:53.009Z,52.35
2023-03-07T17:32:21.645Z,52.31
2023-03-07T17:34:49.816Z,52.80
2023-03-07T17:37:18.073Z,52.85
2023-03-07T17:39:46.242Z,53.19
2023-03-07T17:42:14.396Z,53.47
2023-03-07T17:44:42.848Z,53.86
2023-03-07T17:47:10.841Z,54.27
2023-03-07T17:49:39.461Z,54.58
2023-03-07T17:52:07.814Z,54.70
2023-03-07T17:54:36.151Z,55.55
2023-03-07T17:57:04.374Z,55.42
2023-03-07T17:59:32.983Z,55.38
2023-03-07T18:02:01.473Z,56.08
2023-03-07T18:04:31.532Z,55.94
2023-03-07T18:07:00.197Z,56.52
2023-03-07T18:09:28.308Z,56.48
2023-03-07T18:11:56.348Z,56.57
2023-03-07T18:14:24.436Z,56.59
2023-03-07T18:16:53.375Z,56.50
2023-03-07T18:19:26.669Z,56.99
2023-03-07T18:21:55.495Z,57.24
2023-03-07T18:24:30.642Z,57.61
2023-03-07T18:27:02.448Z,57.71
2023-03-07T18:29:30.843Z,58.33
2023-03-07T18:32:00.949Z,58.22
2023-03-07T18:34:29.199Z,58.25
2023-03-07T18:37:01.659Z,58.07
2023-03-07T18:39:30.090Z,58.60
2023-03-07T18:41:58.148Z,58.46
2023-03-07T18:44:26.184Z,58.61
2023-03-07T18:46:54.272Z,58.74
2023-03-07T18:49:22.291Z,58.73
2023-03-07T18:51:50.409Z,59.34
2023-03-07T18:54:18.435Z,59.19
2023-03-07T18:56:47.312Z,59.54
2023-03-07T18:59:16.022Z,59.77
2023-03-07T19:01:44.688Z,59.94
2023-03-07T19:04:12.898Z,60.05
2023-03-07T19:06:42.202Z,60.50
2023-03-07T19:09:17.438Z,60.98
2023-03-07T19:11:45.927Z,61.41
2023-03-07T19:14:14.060Z,61.73
2023-03-07T19:16:42.882Z,61.37
2023-03-07T19:19:11.594Z,60.96
2023-03-07T19:21:40.156Z,61.33
2023-03-07T19:24:11.424Z,61.49
2023-03-07T19:26:40.982Z,61.76
2023-03-07T19:29:11.200Z,62.22
2023-03-07T19:31:39.453Z,62.30
2023-03-07T19:34:07.484Z,63.14
2023-03-07T19:36:37.057Z,62.69
2023-03-07T19:39:05.698Z,63.20
2023-03-07T19:41:33.696Z,63.30
2023-03-07T19:44:01.924Z,63.98
2023-03-07T19:46:30.033Z,64.15
2023-03-07T19:48:58.446Z,63.97
2023-03-07T19:51:26.603Z,64.75
2023-03-07T19:53:57.387Z,65.95
2023-03-07T19:56:29.976Z,65.21
2023-03-07T19:58:59.192Z,65.47
2023-03-07T20:01:28.716Z,65.21
2023-03-07T20:03:57.197Z,65.46
2023-03-07T20:06:26.837Z,65.08
2023-03-07T20:08:55.260Z,65.13
2023-03-07T20:11:26.995Z,65.42
2023-03-07T20:13:56.382Z,65.30
2023-03-07T20:16:24.718Z,65.86
2023-03-07T20:18:53.856Z,67.83
2023-03-07T20:21:26.280Z,67.33
2023-03-07T20:23:59.856Z,67.98
2023-03-07T20:26:30.077Z,67.82
2023-03-07T20:28:59.206Z,67.86
2023-03-07T20:31:28.271Z,68.23
2023-03-07T20:33:58.008Z,67.78
2023-03-07T20:36:30.750Z,68.50
2023-03-07T20:39:00.331Z,68.80
2023-03-07T20:41:30.441Z,68.30
2023-03-07T20:44:00.876Z,68.18
2023-03-07T20:46:28.963Z,68.12
2023-03-07T20:48:57.898Z,68.84
2023-03-07T20:51:27.400Z,69.53
2023-03-07T20:53:57.173Z,70.60
2023-03-07T20:56:26.484Z,70.57
2023-03-07T20:58:55.332Z,70.78
2023-03-07T21:01:24.723Z,70.86
2023-03-07T21:03:53.912Z,70.72
2023-03-07T21:06:22.189Z,70.65
2023-03-07T21:08:50.180Z,70.62
2023-03-07T21:11:19.172Z,71.31
2023-03-07T21:13:48.688Z,71.17
2023-03-07T21:16:16.709Z,70.78
2023-03-07T21:18:44.832Z,71.23
2023-03-07T21:21:14.519Z,74.41
2023-03-07T21:23:42.720Z,75.04
2023-03-07T21:26:15.448Z,73.58
2023-03-07T21:28:43.995Z,73.70
2023-03-07T21:31:11.940Z,75.68
2023-03-07T21:33:41.218Z,76.97
2023-03-07T21:36:11.178Z,77.75
2023-03-07T21:38:41.588Z,79.01
2023-03-07T21:41:09.725Z,78.23
2023-03-07T21:43:37.701Z,77.84
2023-03-07T21:46:06.270Z,76.95
2023-03-07T21:48:34.339Z,77.12
2023-03-07T21:51:02.455Z,78.64
2023-03-07T21:53:31.208Z,82.47
2023-03-07T21:56:02.793Z,80.59
2023-03-07T21:58:31.404Z,79.71
2023-03-07T22:00:59.556Z,78.89
2023-03-07T22:03:29.242Z,78.14
2023-03-07T22:05:57.596Z,77.47
2023-03-07T22:08:25.931Z,77.83
2023-03-07T22:10:59.462Z,76.63
2023-03-07T22:13:28.303Z,76.49
2023-03-07T22:15:57.673Z,76.67
2023-03-07T22:18:26.055Z,76.42
2023-03-07T22:20:55.313Z,76.44
2023-03-07T22:23:23.705Z,76.84
2023-03-07T22:25:51.713Z,77.31
2023-03-07T22:28:19.733Z,77.78
2023-03-07T22:30:49.470Z,78.35
2023-03-07T22:33:17.651Z,79.45
2023-03-07T22:35:45.821Z,80.25
2023-03-07T22:38:16.452Z,80.16
2023-03-07T22:40:45.024Z,79.13
2023-03-07T22:43:13.079Z,78.94
2023-03-07T22:45:46.637Z,79.04
2023-03-07T22:48:16.268Z,78.87
2023-03-07T22:50:44.490Z,78.47
2023-03-07T22:53:12.719Z,79.80
2023-03-07T22:55:44.145Z,79.70
2023-03-07T22:58:12.669Z,78.97
2023-03-07T23:00:41.802Z,78.44
2023-03-07T23:03:10.387Z,78.40
2023-03-07T23:05:38.473Z,78.17
2023-03-07T23:08:06.551Z,78.26
2023-03-07T23:10:34.793Z,79.59
2023-03-07T23:13:02.764Z,79.60
2023-03-07T23:15:31.281Z,79.78
2023-03-07T23:17:59.492Z,78.86
2023-03-07T23:20:29.142Z,78.85
2023-03-07T23:22:57.074Z,79.05
2023-03-07T23:25:25.182Z,78.85
2023-03-07T23:27:53.076Z,78.56
2023-03-07T23:30:22.028Z,78.58
2023-03-07T23:32:50.094Z,78.45
2023-03-07T23:35:18.104Z,79.33
2023-03-07T23:37:47.642Z,78.66
2023-03-07T23:40:15.591Z,78.92
2023-03-07T23:42:44.072Z,79.15
2023-03-07T23:45:12.201Z,79.52
2023-03-07T23:47:40.674Z,79.45
2023-03-07T23:50:09.396Z,79.41
2023-03-07T23:52:37.279Z,79.61
2023-03-07T23:55:09.076Z,78.94
2023-03-07T23:57:38.052Z,79.65
